Time;durP1;ratioP1;P1;durP2;ratioP2;P2;SDS_P1;SDS_P2;PMS_P1;PMS_P2;Temp;Humidity;BMP_temperature;BMP_pressure;BME280_temperature;BME280_humidity;BME280_pressure;Samples;Min_cycle;Max_cycle;Signal;HPM_P1;HPM_P2
2022/09/13 03:01:23;;;;;;;0.70;0.60;;;17.80;76.00;;;;;;5642263;23;20850;-70
2022/09/13 03:03:52;;;;;;;0.70;0.60;;;17.80;76.10;;;;;;4936132;29;20503;-70
2022/09/13 03:06:23;;;;;;;0.70;0.60;;;17.70;76.30;;;;;;4936164;29;20859;-71
2022/09/13 03:08:50;;;;;;;0.70;0.60;;;17.60;76.60;;;;;;4936496;29;20506;-71
2022/09/13 03:11:29;;;;;;;0.70;0.60;;;17.60;76.70;;;;;;4936170;29;20522;-71
2022/09/13 03:14:10;;;;;;;0.80;0.70;;;17.70;76.60;;;;;;4936546;29;20428;-71
2022/09/13 03:16:57;;;;;;;0.80;0.80;;;17.70;76.70;;;;;;4939125;29;20471;-70
2022/09/13 03:19:39;;;;;;;0.70;0.60;;;17.70;76.70;;;;;;4939882;29;20439;-70
2022/09/13 03:22:27;;;;;;;0.70;0.60;;;17.80;76.50;;;;;;4939811;29;20471;-71
2022/09/13 03:25:04;;;;;;;0.70;0.70;;;17.90;76.20;;;;;;4939771;29;20519;-70
2022/09/13 03:27:37;;;;;;;0.73;0.60;;;17.80;76.40;;;;;;4939730;29;20440;-70
2022/09/13 03:30:07;;;;;;;0.70;0.50;;;17.50;77.30;;;;;;4939740;29;20440;-70
2022/09/13 03:32:46;;;;;;;0.70;0.60;;;17.60;77.40;;;;;;4939579;29;20530;-70
2022/09/13 03:35:22;;;;;;;0.70;0.67;;;17.60;77.30;;;;;;4939590;29;20494;-70
2022/09/13 03:37:55;;;;;;;0.70;0.70;;;17.40;77.70;;;;;;4939460;29;20507;-70
2022/09/13 03:40:31;;;;;;;0.80;0.60;;;17.40;77.70;;;;;;4939429;29;20435;-70
2022/09/13 03:43:04;;;;;;;0.70;0.60;;;17.40;78.00;;;;;;4939499;29;20440;-71
2022/09/13 03:45:36;;;;;;;1.00;0.60;;;17.50;77.90;;;;;;4939411;29;20527;-70
2022/09/13 03:48:06;;;;;;;0.70;0.60;;;17.60;77.40;;;;;;4939636;29;20432;-70
2022/09/13 03:50:34;;;;;;;0.70;0.60;;;17.70;76.90;;;;;;4939199;29;20452;-70
2022/09/13 03:53:04;;;;;;;1.00;0.60;;;17.70;77.00;;;;;;4939246;29;20476;-71
2022/09/13 03:55:33;;;;;;;0.70;0.60;;;17.70;76.80;;;;;;4939229;29;20443;-71
2022/09/13 03:58:01;;;;;;;0.70;0.60;;;17.80;76.60;;;;;;4939067;29;20542;-70
2022/09/13 04:00:28;;;;;;;0.70;0.60;;;17.80;76.40;;;;;;4939248;29;20521;-70
2022/09/13 04:02:55;;;;;;;0.70;0.60;;;17.70;76.70;;;;;;4938719;29;20463;-70
2022/09/13 04:05:23;;;;;;;0.70;0.60;;;17.60;76.80;;;;;;4939066;29;20490;-71
2022/09/13 04:07:49;;;;;;;0.70;0.60;;;17.50;76.80;;;;;;4939544;29;20503;-70
2022/09/13 04:10:16;;;;;;;0.70;0.70;;;17.50;76.40;;;;;;4938941;29;20452;-71
2022/09/13 04:12:43;;;;;;;0.70;0.63;;;17.60;76.20;;;;;;4939031;29;20476;-70
2022/09/13 04:15:10;;;;;;;0.70;0.60;;;17.50;75.80;;;;;;4938836;29;20550;-71
2022/09/13 04:17:36;;;;;;;0.70;0.60;;;17.40;75.90;;;;;;4938972;29;20476;-70
2022/09/13 04:20:04;;;;;;;0.70;0.70;;;17.40;75.90;;;;;;4938754;29;20452;-71
2022/09/13 04:22:32;;;;;;;0.70;0.60;;;17.40;75.90;;;;;;4938609;29;20472;-70
2022/09/13 04:24:59;;;;;;;0.70;0.70;;;17.40;75.80;;;;;;4938672;29;20499;-71
2022/09/13 04:27:26;;;;;;;1.27;0.70;;;17.40;75.80;;;;;;4938662;29;20504;-70
2022/09/13 04:29:52;;;;;;;0.70;0.60;;;17.30;76.00;;;;;;4938273;29;21036;-71
2022/09/13 04:32:19;;;;;;;0.70;0.60;;;17.30;75.90;;;;;;4938474;29;20468;-71
2022/09/13 04:34:46;;;;;;;0.70;0.70;;;17.40;75.90;;;;;;4938497;29;20511;-70
2022/09/13 04:37:13;;;;;;;0.97;0.80;;;17.40;75.80;;;;;;4938412;29;20507;-72
2022/09/13 04:39:41;;;;;;;0.70;0.70;;;17.50;75.80;;;;;;4938375;29;20452;-71
2022/09/13 04:42:10;;;;;;;0.70;0.67;;;17.50;75.60;;;;;;4938318;29;20906;-71
2022/09/13 04:44:36;;;;;;;0.80;0.70;;;17.50;75.50;;;;;;4938277;29;20529;-70
2022/09/13 04:47:03;;;;;;;0.93;0.83;;;17.50;75.90;;;;;;4938264;29;20507;-70
2022/09/13 04:49:30;;;;;;;0.70;0.60;;;17.50;76.50;;;;;;4938234;29;20503;-70
2022/09/13 04:51:56;;;;;;;0.70;0.50;;;17.40;76.80;;;;;;4938134;29;20484;-71
2022/09/13 04:54:23;;;;;;;0.90;0.70;;;17.20;76.70;;;;;;4937976;29;20947;-71
2022/09/13 04:56:51;;;;;;;0.70;0.60;;;17.10;76.80;;;;;;4937761;29;20483;-71
2022/09/13 04:59:18;;;;;;;0.80;0.60;;;17.00;77.20;;;;;;4938049;29;20448;-72
2022/09/13 05:01:45;;;;;;;1.73;0.80;;;16.90;78.60;;;;;;4937805;29;20836;-71
2022/09/13 05:04:11;;;;;;;0.70;0.70;;;16.90;79.20;;;;;;4937993;29;20452;-71
2022/09/13 05:06:38;;;;;;;0.70;0.60;;;16.80;79.70;;;;;;4937894;29;20463;-70
2022/09/13 05:09:05;;;;;;;0.70;0.60;;;16.80;80.00;;;;;;4937896;29;20531;-71
2022/09/13 05:11:32;;;;;;;0.70;0.60;;;16.90;79.90;;;;;;4937790;29;20479;-71
2022/09/13 05:14:01;;;;;;;0.80;0.70;;;17.00;79.70;;;;;;4937805;29;20500;-71
2022/09/13 05:16:30;;;;;;;1.10;0.80;;;17.10;78.80;;;;;;4937776;29;20452;-70
2022/09/13 05:18:57;;;;;;;0.70;0.60;;;17.10;78.70;;;;;;4937610;29;20487;-71
2022/09/13 05:21:24;;;;;;;0.70;0.70;;;17.00;78.40;;;;;;4937611;29;20475;-71
2022/09/13 05:23:52;;;;;;;0.80;0.67;;;17.10;78.50;;;;;;4937593;29;20515;-71
2022/09/13 05:26:20;;;;;;;0.80;0.67;;;17.30;78.10;;;;;;4937824;29;20455;-71
2022/09/13 05:28:47;;;;;;;0.70;0.60;;;17.40;78.00;;;;;;4937522;29;20440;-71
2022/09/13 05:31:16;;;;;;;0.70;0.60;;;17.60;77.40;;;;;;4937193;29;20956;-71
2022/09/13 05:33:43;;;;;;;0.77;0.60;;;17.90;76.70;;;;;;4937454;29;20463;-72
2022/09/13 05:36:10;;;;;;;0.70;0.60;;;18.00;76.00;;;;;;4937400;29;20448;-73
2022/09/13 05:38:37;;;;;;;0.80;0.63;;;18.20;75.20;;;;;;4936073;29;21002;-72
2022/09/13 05:41:05;;;;;;;0.70;0.60;;;18.20;74.80;;;;;;4937445;29;20472;-73
2022/09/13 05:43:33;;;;;;;0.70;0.60;;;18.20;74.70;;;;;;4937442;29;20448;-71
2022/09/13 05:46:01;;;;;;;0.70;0.60;;;18.30;74.60;;;;;;4937186;29;20448;-72
2022/09/13 05:48:29;;;;;;;0.93;0.60;;;18.30;74.60;;;;;;4937098;29;21008;-71
2022/09/13 05:50:56;;;;;;;0.70;0.60;;;18.10;74.70;;;;;;4937063;29;20554;-72
2022/09/13 05:53:22;;;;;;;0.80;0.60;;;18.00;75.50;;;;;;4937077;29;20451;-73
2022/09/13 05:55:49;;;;;;;0.90;0.80;;;18.00;75.70;;;;;;4936970;29;20447;-72
2022/09/13 05:58:16;;;;;;;0.80;0.70;;;18.10;75.30;;;;;;4936892;29;20519;-72
2022/09/13 06:00:42;;;;;;;0.77;0.70;;;18.20;74.90;;;;;;4936605;29;20527;-72
2022/09/13 06:03:09;;;;;;;0.70;0.60;;;18.20;74.90;;;;;;4937410;29;20504;-72
2022/09/13 06:05:37;;;;;;;0.80;0.70;;;18.60;74.60;;;;;;4937043;29;20956;-72
2022/09/13 06:08:04;;;;;;;0.70;0.60;;;19.20;72.80;;;;;;4938004;29;20463;-73
2022/09/13 06:10:31;;;;;;;0.70;0.60;;;19.30;71.60;;;;;;4937336;29;20814;-73
2022/09/13 06:12:57;;;;;;;1.43;0.70;;;19.40;71.30;;;;;;4937490;29;20452;-73
2022/09/13 06:15:24;;;;;;;0.70;0.60;;;19.50;71.50;;;;;;4937313;29;20452;-73
2022/09/13 06:17:51;;;;;;;1.07;0.90;;;19.80;71.10;;;;;;4936868;29;20495;-71
2022/09/13 06:20:18;;;;;;;0.80;0.60;;;20.10;70.50;;;;;;4936619;29;20507;-72
2022/09/13 06:22:47;;;;;;;0.70;0.60;;;20.40;69.30;;;;;;4936327;29;20483;-72
2022/09/13 06:25:14;;;;;;;0.70;0.60;;;20.60;68.40;;;;;;4936606;29;20452;-72
2022/09/13 06:27:40;;;;;;;0.70;0.60;;;20.60;68.20;;;;;;4936243;29;20944;-72
2022/09/13 06:30:10;;;;;;;0.70;0.70;;;20.50;68.50;;;;;;4936516;29;20448;-71
2022/09/13 06:32:37;;;;;;;0.80;0.70;;;20.30;69.10;;;;;;4936469;29;20503;-72
2022/09/13 06:35:04;;;;;;;1.07;0.60;;;20.20;69.40;;;;;;4937366;29;20463;-73
2022/09/13 06:37:31;;;;;;;0.70;0.60;;;20.10;69.70;;;;;;4937928;29;20497;-72
2022/09/13 06:39:59;;;;;;;0.70;0.60;;;20.10;70.10;;;;;;4937846;29;20475;-73
2022/09/13 06:42:26;;;;;;;0.70;0.60;;;20.20;71.20;;;;;;4936394;29;20468;-72
2022/09/13 06:44:52;;;;;;;0.70;0.60;;;21.20;69.60;;;;;;4936602;29;20586;-72
2022/09/13 06:47:19;;;;;;;1.10;0.67;;;22.90;65.30;;;;;;4936306;29;20468;-72
2022/09/13 06:49:46;;;;;;;0.77;0.70;;;24.50;60.40;;;;;;4936376;29;20488;-73
2022/09/13 06:52:12;;;;;;;0.70;0.60;;;25.20;57.90;;;;;;4936341;29;20520;-73
2022/09/13 06:54:39;;;;;;;0.70;0.60;;;25.40;57.00;;;;;;4936321;29;20491;-72
2022/09/13 06:57:08;;;;;;;0.70;0.60;;;26.00;55.90;;;;;;4936018;29;20867;-73
2022/09/13 06:59:34;;;;;;;0.73;0.60;;;27.20;54.10;;;;;;4936111;29;20471;-73
2022/09/13 07:02:01;;;;;;;0.70;0.60;;;28.00;52.10;;;;;;4935902;29;21043;-73
2022/09/13 07:04:30;;;;;;;1.00;0.70;;;28.60;50.60;;;;;;4936226;29;20451;-73
2022/09/13 07:06:57;;;;;;;0.80;0.60;;;28.60;50.30;;;;;;4936124;29;20542;-73
2022/09/13 07:09:24;;;;;;;0.80;0.60;;;28.10;50.90;;;;;;4936022;29;20467;-72
2022/09/13 07:11:53;;;;;;;0.70;0.60;;;26.90;53.20;;;;;;4936126;29;20475;-72
2022/09/13 07:14:23;;;;;;;0.80;0.63;;;25.80;55.60;;;;;;4935692;29;20948;-73
2022/09/13 07:16:50;;;;;;;0.70;0.60;;;25.20;57.30;;;;;;4936078;29;20452;-73
2022/09/13 07:19:21;;;;;;;0.90;0.60;;;25.10;57.10;;;;;;4935939;29;20526;-73
2022/09/13 07:21:48;;;;;;;0.70;0.60;;;24.30;59.60;;;;;;4935916;29;20519;-73
2022/09/13 07:24:15;;;;;;;0.73;0.60;;;23.80;60.80;;;;;;4935818;29;21046;-73
2022/09/13 07:26:42;;;;;;;0.70;0.60;;;23.40;62.20;;;;;;4936096;29;20456;-73
2022/09/13 07:29:12;;;;;;;0.90;0.70;;;23.30;62.70;;;;;;4935627;29;20444;-72
2022/09/13 07:31:42;;;;;;;0.70;0.60;;;23.30;63.10;;;;;;4936208;29;20482;-72
2022/09/13 07:34:13;;;;;;;0.70;0.60;;;22.90;64.00;;;;;;4935993;29;20455;-72
2022/09/13 07:36:40;;;;;;;0.90;0.70;;;22.60;64.50;;;;;;4936041;29;20436;-72
2022/09/13 07:39:06;;;;;;;0.90;0.70;;;22.20;65.50;;;;;;4935865;29;20483;-73
2022/09/13 07:41:34;;;;;;;0.70;0.60;;;22.20;66.50;;;;;;4936090;29;20471;-73
2022/09/13 07:44:02;;;;;;;1.10;0.80;;;22.00;67.30;;;;;;4935858;29;20452;-72
2022/09/13 07:46:31;;;;;;;0.73;0.57;;;22.10;67.90;;;;;;4936276;29;20460;-71
2022/09/13 07:49:01;;;;;;;0.90;0.70;;;21.80;68.00;;;;;;4935461;29;20452;-72
2022/09/13 07:51:29;;;;;;;0.90;0.60;;;21.90;68.70;;;;;;4935698;29;20472;-71
2022/09/13 07:53:58;;;;;;;1.10;0.60;;;22.10;67.80;;;;;;4935749;29;20877;-72
2022/09/13 07:56:26;;;;;;;0.70;0.60;;;22.40;67.80;;;;;;4935707;29;20456;-72
2022/09/13 07:58:53;;;;;;;0.70;0.60;;;22.40;66.40;;;;;;4935537;29;20526;-72
2022/09/13 08:01:22;;;;;;;1.10;0.60;;;22.30;66.20;;;;;;4935382;29;20480;-71
2022/09/13 08:03:52;;;;;;;0.87;0.60;;;22.60;66.20;;;;;;4939370;29;20456;-72
2022/09/13 08:06:20;;;;;;;0.80;0.60;;;22.70;65.30;;;;;;4939053;29;20502;-71
2022/09/13 08:08:47;;;;;;;0.70;0.60;;;22.80;64.70;;;;;;4938974;29;20495;-72
2022/09/13 08:11:18;;;;;;;0.70;0.60;;;22.90;65.40;;;;;;4938777;29;20546;-71
2022/09/13 08:13:45;;;;;;;0.93;0.50;;;23.20;65.00;;;;;;4938883;29;20439;-72
2022/09/13 08:16:12;;;;;;;0.70;0.53;;;23.20;63.60;;;;;;4939129;29;20539;-71
2022/09/13 08:18:43;;;;;;;0.80;0.60;;;23.40;63.90;;;;;;4938740;29;20608;-71
2022/09/13 08:21:10;;;;;;;0.90;0.60;;;23.70;63.50;;;;;;4939544;29;20475;-71
2022/09/13 08:23:38;;;;;;;0.90;0.60;;;23.70;62.80;;;;;;4938425;29;20451;-71
2022/09/13 08:26:06;;;;;;;0.77;0.60;;;23.60;63.90;;;;;;4938453;29;20889;-71
2022/09/13 08:28:34;;;;;;;0.70;0.60;;;23.70;63.90;;;;;;4938621;29;20447;-72
2022/09/13 08:31:05;;;;;;;0.70;0.60;;;23.50;62.80;;;;;;4938247;29;21007;-71
2022/09/13 08:33:33;;;;;;;0.70;0.60;;;23.20;64.30;;;;;;4938251;29;20511;-71
2022/09/13 08:35:59;;;;;;;0.70;0.60;;;23.30;64.80;;;;;;4938484;29;20520;-72
2022/09/13 08:38:26;;;;;;;0.70;0.50;;;23.50;64.20;;;;;;4938433;29;20492;-71
2022/09/13 08:40:57;;;;;;;0.70;0.60;;;23.70;62.50;;;;;;4938644;29;20472;-71
2022/09/13 08:43:44;;;;;;;0.70;0.50;;;23.80;63.00;;;;;;4938419;29;20472;-71
2022/09/13 08:46:20;;;;;;;1.00;0.70;;;24.00;61.20;;;;;;4938464;29;20500;-70
2022/09/13 08:48:50;;;;;;;2.40;0.60;;;24.10;61.30;;;;;;4938335;29;20436;-71
2022/09/13 08:51:27;;;;;;;0.70;0.50;;;24.10;60.80;;;;;;4938254;29;20460;-71
2022/09/13 08:53:56;;;;;;;0.80;0.50;;;24.10;61.80;;;;;;4938260;29;20838;-71
2022/09/13 08:56:30;;;;;;;0.70;0.50;;;24.30;61.70;;;;;;4938459;29;20448;-70
2022/09/13 08:59:16;;;;;;;0.70;0.60;;;24.00;61.90;;;;;;4938110;29;20522;-71
2022/09/13 09:01:53;;;;;;;0.70;0.60;;;23.80;62.50;;;;;;4937850;29;20526;-70
2022/09/13 09:04:45;;;;;;;0.90;0.60;;;23.60;62.70;;;;;;4938049;29;20439;-70
2022/09/13 09:07:15;;;;;;;0.70;0.60;;;23.40;63.00;;;;;;4937897;29;20503;-72
2022/09/13 09:09:46;;;;;;;0.70;0.60;;;23.40;63.90;;;;;;4938193;29;20440;-70
2022/09/13 09:12:25;;;;;;;0.70;0.50;;;23.50;63.10;;;;;;4937895;29;20467;-70
2022/09/13 09:15:01;;;;;;;0.70;0.50;;;23.70;61.90;;;;;;4937919;29;20458;-71
2022/09/13 09:17:34;;;;;;;0.70;0.60;;;23.80;61.80;;;;;;4939024;29;20934;-72
2022/09/13 09:20:08;;;;;;;0.70;0.60;;;24.10;61.50;;;;;;4938070;29;20495;-71
2022/09/13 09:22:36;;;;;;;0.70;0.60;;;24.30;61.50;;;;;;4937632;29;20507;-71
2022/09/13 09:25:03;;;;;;;0.70;0.60;;;24.60;60.30;;;;;;4937361;29;21011;-71
2022/09/13 09:27:32;;;;;;;0.70;0.60;;;24.70;61.50;;;;;;4937580;29;20454;-71
2022/09/13 09:29:59;;;;;;;0.80;0.60;;;24.70;60.60;;;;;;4937536;29;20452;-71
2022/09/13 09:32:50;;;;;;;0.70;0.60;;;24.70;61.00;;;;;;4937391;29;20471;-70
2022/09/13 09:35:27;;;;;;;0.90;0.63;;;24.80;60.60;;;;;;4937530;29;20443;-71
2022/09/13 09:38:21;;;;;;;0.70;0.60;;;24.80;63.70;;;;;;4937456;29;20436;-71
2022/09/13 09:40:48;;;;;;;0.90;0.60;;;24.70;64.10;;;;;;4937271;29;20519;-70
2022/09/13 09:43:22;;;;;;;0.80;0.60;;;24.90;63.10;;;;;;4937013;29;21003;-70
2022/09/13 09:45:51;;;;;;;0.70;0.60;;;25.20;60.70;;;;;;4937328;29;20471;-69
2022/09/13 09:48:23;;;;;;;0.87;0.60;;;25.40;59.50;;;;;;4937162;29;20456;-69
2022/09/13 09:50:54;;;;;;;0.70;0.60;;;25.70;60.80;;;;;;4937054;29;20523;-68
2022/09/13 09:53:27;;;;;;;0.70;0.60;;;25.70;60.00;;;;;;4937051;29;20538;-68
2022/09/13 09:55:59;;;;;;;0.80;0.50;;;25.70;59.70;;;;;;4936760;29;20916;-69
2022/09/13 09:58:39;;;;;;;0.70;0.60;;;25.90;59.60;;;;;;4936999;29;20634;-69
2022/09/13 10:01:14;;;;;;;0.70;0.50;;;25.70;58.40;;;;;;4936783;29;20484;-69
2022/09/13 10:03:41;;;;;;;0.80;0.60;;;25.50;54.90;;;;;;4936967;29;20455;-68
2022/09/13 10:06:12;;;;;;;0.80;0.60;;;25.40;58.00;;;;;;4936890;29;20459;-69
2022/09/13 10:08:41;;;;;;;0.77;0.60;;;25.50;55.70;;;;;;4936864;29;20452;-68
2022/09/13 10:11:10;;;;;;;0.90;0.60;;;25.70;55.00;;;;;;4936425;29;20476;-69
2022/09/13 10:13:38;;;;;;;0.70;0.50;;;26.10;53.70;;;;;;4936681;29;20507;-69
2022/09/13 10:16:21;;;;;;;0.70;0.60;;;26.10;53.70;;;;;;4936431;29;20944;-69
2022/09/13 10:18:48;;;;;;;0.70;0.53;;;26.10;54.40;;;;;;4936833;29;20471;-69
2022/09/13 10:21:24;;;;;;;0.80;0.60;;;25.90;54.60;;;;;;4936537;29;20472;-69
2022/09/13 10:23:52;;;;;;;0.70;0.53;;;25.90;54.90;;;;;;4936593;29;20440;-70
2022/09/13 10:26:21;;;;;;;0.70;0.60;;;25.70;53.40;;;;;;4936398;29;20460;-69
2022/09/13 10:28:56;;;;;;;0.70;0.50;;;25.70;53.30;;;;;;4936529;29;20455;-68
2022/09/13 10:31:29;;;;;;;0.70;0.50;;;25.60;52.10;;;;;;4936485;29;20555;-69
2022/09/13 10:33:59;;;;;;;0.70;0.50;;;25.60;51.50;;;;;;4936541;29;20432;-69
2022/09/13 10:36:29;;;;;;;0.70;0.50;;;25.70;52.30;;;;;;4936488;29;20448;-69
2022/09/13 10:39:00;;;;;;;0.70;0.50;;;25.90;52.30;;;;;;4936340;29;20558;-69
2022/09/13 10:41:29;;;;;;;0.70;0.60;;;26.00;53.50;;;;;;4936122;29;21054;-68
2022/09/13 10:43:59;;;;;;;0.70;0.50;;;26.30;54.40;;;;;;4936353;29;20451;-68
2022/09/13 10:46:28;;;;;;;0.70;0.60;;;26.40;52.00;;;;;;4936369;29;20456;-69
2022/09/13 10:48:56;;;;;;;0.70;0.50;;;26.30;50.30;;;;;;4936233;29;20448;-68
2022/09/13 10:51:35;;;;;;;0.80;0.60;;;26.50;50.60;;;;;;4936129;29;20527;-69
2022/09/13 10:54:16;;;;;;;0.70;0.50;;;26.70;50.80;;;;;;4935959;29;20859;-68
2022/09/13 10:56:44;;;;;;;0.87;0.60;;;27.00;49.50;;;;;;4936290;29;20440;-70
2022/09/13 10:59:21;;;;;;;0.70;0.50;;;27.00;50.00;;;;;;4936130;29;20487;-69
2022/09/13 11:02:10;;;;;;;0.70;0.50;;;27.00;48.70;;;;;;4935743;29;21062;-70
2022/09/13 11:04:56;;;;;;;0.70;0.50;;;27.00;49.30;;;;;;4936436;29;20456;-69
2022/09/13 11:07:44;;;;;;;0.70;0.60;;;26.90;47.30;;;;;;4936905;29;20440;-70
2022/09/13 11:10:16;;;;;;;0.70;0.50;;;27.00;46.70;;;;;;4936697;29;20441;-70
2022/09/13 11:12:51;;;;;;;0.70;0.50;;;27.30;47.00;;;;;;4936652;29;20475;-70
2022/09/13 11:15:33;;;;;;;0.70;0.50;;;27.60;44.90;;;;;;4936704;29;20428;-69
2022/09/13 11:18:27;;;;;;;0.70;0.60;;;27.60;44.40;;;;;;4936707;29;20435;-70
2022/09/13 11:21:02;;;;;;;0.70;0.60;;;27.80;44.10;;;;;;4936436;29;20467;-70
2022/09/13 11:23:46;;;;;;;0.70;0.50;;;27.80;46.00;;;;;;4936391;29;20435;-70
2022/09/13 11:26:30;;;;;;;0.70;0.50;;;27.80;46.10;;;;;;4937399;29;20436;-69
2022/09/13 11:29:09;;;;;;;0.70;0.50;;;27.90;43.60;;;;;;4936830;29;20971;-72
2022/09/13 11:31:45;;;;;;;0.70;0.50;;;28.00;42.40;;;;;;4936560;29;20463;-71
2022/09/13 11:34:24;;;;;;;0.70;0.50;;;28.10;41.90;;;;;;4936512;29;20440;-72
2022/09/13 11:37:09;;;;;;;0.73;0.50;;;28.30;42.40;;;;;;4937514;29;20801;-71
2022/09/13 11:39:38;;;;;;;0.80;0.50;;;28.40;42.40;;;;;;4940169;29;20478;-72
2022/09/13 11:42:19;;;;;;;0.70;0.57;;;28.70;39.30;;;;;;4940273;29;20475;-70
2022/09/13 11:45:09;;;;;;;0.70;0.60;;;28.50;41.50;;;;;;4939758;29;20938;-70
2022/09/13 11:47:48;;;;;;;0.70;0.50;;;28.70;41.30;;;;;;4930470;29;20464;-71
2022/09/13 11:50:26;;;;;;;0.80;0.60;;;28.90;42.30;;;;;;4939416;29;20424;-71
2022/09/13 11:53:10;;;;;;;0.70;0.50;;;29.10;42.40;;;;;;4939442;29;20835;-72
2022/09/13 11:55:41;;;;;;;0.70;0.50;;;28.80;42.60;;;;;;4939382;29;20444;-71
2022/09/13 11:58:15;;;;;;;0.70;0.60;;;28.50;43.10;;;;;;4939402;29;20436;-71
2022/09/13 12:00:45;;;;;;;0.70;0.50;;;28.70;43.20;;;;;;4938926;29;20523;-71
2022/09/13 12:03:20;;;;;;;0.70;0.50;;;28.60;43.80;;;;;;4939601;29;20436;-70
2022/09/13 12:05:51;;;;;;;0.70;0.50;;;28.90;43.60;;;;;;4939148;29;20459;-71
2022/09/13 12:08:21;;;;;;;0.70;0.50;;;29.10;43.60;;;;;;4939622;29;20908;-71
2022/09/13 12:10:51;;;;;;;0.70;0.50;;;29.10;43.00;;;;;;4940339;29;20471;-73
2022/09/13 12:13:21;;;;;;;0.70;0.60;;;29.00;43.80;;;;;;4939812;29;20456;-71
2022/09/13 12:15:53;;;;;;;0.70;0.60;;;28.80;43.70;;;;;;4940463;29;20495;-71
2022/09/13 12:18:25;;;;;;;0.70;0.50;;;28.70;45.30;;;;;;4940298;29;20440;-72
2022/09/13 12:20:55;;;;;;;0.70;0.50;;;28.60;44.90;;;;;;4939485;29;20495;-72
2022/09/13 12:23:26;;;;;;;0.80;0.60;;;28.70;44.70;;;;;;4939538;29;20459;-71
2022/09/13 12:25:58;;;;;;;0.80;0.50;;;28.70;44.70;;;;;;4939758;29;20444;-71
2022/09/13 12:28:29;;;;;;;0.70;0.50;;;29.00;44.30;;;;;;4939651;29;20444;-72
2022/09/13 12:31:00;;;;;;;0.70;0.60;;;29.30;43.90;;;;;;4939128;29;20468;-71
2022/09/13 12:33:28;;;;;;;1.23;0.60;;;29.30;43.90;;;;;;4939612;29;20482;-70
2022/09/13 12:36:27;;;;;;;0.70;0.50;;;29.70;44.00;;;;;;4940115;29;20456;-72
2022/09/13 12:39:27;;;;;;;0.70;0.50;;;29.40;43.30;;;;;;4939805;29;20473;-72
2022/09/13 12:42:12;;;;;;;0.70;0.50;;;29.40;43.50;;;;;;4939174;29;20487;-72
2022/09/13 12:44:56;;;;;;;0.70;0.60;;;29.50;45.00;;;;;;4939158;29;20437;-71
2022/09/13 12:47:42;;;;;;;0.70;0.50;;;29.80;43.90;;;;;;4938929;29;20447;-71
2022/09/13 12:50:29;;;;;;;0.70;0.50;;;29.80;44.70;;;;;;4939516;29;20954;-71
2022/09/13 12:53:08;;;;;;;0.70;0.50;;;30.00;43.50;;;;;;4939385;29;20436;-72
2022/09/13 12:56:00;;;;;;;0.70;0.50;;;30.00;43.50;;;;;;4938819;29;20443;-71
2022/09/13 12:58:49;;;;;;;0.77;0.60;;;29.80;43.60;;;;;;4938789;29;20809;-71
2022/09/13 13:01:20;;;;;;;0.70;0.60;;;29.60;43.90;;;;;;4938619;29;20495;-72
2022/09/13 13:03:52;;;;;;;0.70;0.50;;;29.70;43.90;;;;;;4938592;29;20470;-71
2022/09/13 13:06:31;;;;;;;1.00;0.60;;;29.90;44.90;;;;;;4938563;29;20428;-72
2022/09/13 13:09:01;;;;;;;0.70;0.60;;;30.10;44.50;;;;;;4939284;29;20912;-70
2022/09/13 13:11:30;;;;;;;0.70;0.50;;;30.10;44.60;;;;;;4938816;29;20479;-71
2022/09/13 13:13:59;;;;;;;0.70;0.60;;;30.10;44.00;;;;;;4938678;29;20467;-69
2022/09/13 13:16:30;;;;;;;0.90;0.60;;;30.20;43.50;;;;;;4938311;29;20456;-72
2022/09/13 13:18:57;;;;;;;0.80;0.50;;;30.10;43.40;;;;;;4939190;29;20789;-72
2022/09/13 13:21:36;;;;;;;0.70;0.60;;;30.00;44.20;;;;;;4938734;29;20496;-71
2022/09/13 13:24:40;;;;;;;0.70;0.50;;;30.00;44.00;;;;;;4938820;29;20447;-71
2022/09/13 13:27:37;;;;;;;0.80;0.60;;;30.20;43.40;;;;;;4938024;29;20526;-72
2022/09/13 13:30:42;;;;;;;2.70;0.70;;;30.20;43.10;;;;;;4937956;29;20455;-71
2022/09/13 13:33:17;;;;;;;1.20;0.60;;;30.50;42.60;;;;;;4937990;29;20443;-71
2022/09/13 13:35:44;;;;;;;1.00;0.60;;;30.70;43.40;;;;;;4938135;29;20442;-72
2022/09/13 13:38:49;;;;;;;1.33;0.50;;;30.80;42.40;;;;;;4937554;29;20456;-70
2022/09/13 13:41:53;;;;;;;1.20;0.67;;;30.90;42.10;;;;;;4937215;29;20546;-71
2022/09/13 13:45:08;;;;;;;0.70;0.50;;;31.10;40.90;;;;;;4878558;29;21078;-70
2022/09/13 13:48:00;;;;;;;0.80;0.60;;;30.80;41.80;;;;;;4937272;29;20436;-70
2022/09/13 13:50:27;;;;;;;0.70;0.60;;;30.30;40.80;;;;;;4937250;29;20440;-70
2022/09/13 13:53:02;;;;;;;0.70;0.50;;;29.80;41.80;;;;;;4937161;29;20455;-70
2022/09/13 13:55:39;;;;;;;0.87;0.50;;;29.40;42.50;;;;;;4937795;29;20448;-69
2022/09/13 13:58:24;;;;;;;1.10;0.60;;;29.50;42.30;;;;;;4937105;29;20838;-71
2022/09/13 14:00:52;;;;;;;1.00;0.60;;;29.80;42.30;;;;;;4935761;29;20923;-71
2022/09/13 14:03:27;;;;;;;0.70;0.50;;;30.20;42.20;;;;;;4937170;29;20491;-70
2022/09/13 14:06:00;;;;;;;0.80;0.53;;;30.50;41.80;;;;;;4936961;29;20451;-71
2022/09/13 14:08:37;;;;;;;0.70;0.50;;;30.90;41.50;;;;;;4936995;29;20503;-70
2022/09/13 14:11:15;;;;;;;0.70;0.60;;;31.30;40.50;;;;;;4936836;29;20478;-70
2022/09/13 14:14:04;;;;;;;0.80;0.60;;;31.60;39.90;;;;;;4936888;29;20432;-69
2022/09/13 14:16:55;;;;;;;1.03;0.60;;;32.00;39.20;;;;;;4936880;29;20484;-70
2022/09/13 14:19:24;;;;;;;0.70;0.60;;;32.10;39.50;;;;;;4936822;29;20488;-70
2022/09/13 14:22:15;;;;;;;0.70;0.50;;;32.40;38.00;;;;;;4936334;29;21039;-70
2022/09/13 14:24:45;;;;;;;0.70;0.50;;;32.70;38.30;;;;;;4922509;29;20955;-70
2022/09/13 14:27:20;;;;;;;0.70;0.50;;;33.90;36.70;;;;;;4936338;29;20555;-72
2022/09/13 14:29:49;;;;;;;0.70;0.60;;;34.70;35.80;;;;;;4936595;29;20436;-72
2022/09/13 14:32:20;;;;;;;0.70;0.50;;;35.50;34.70;;;;;;4936450;29;20464;-71
2022/09/13 14:35:01;;;;;;;0.70;0.50;;;36.60;34.00;;;;;;4936680;29;20741;-72
2022/09/13 14:37:30;;;;;;;0.97;0.60;;;37.50;33.30;;;;;;4936557;29;20447;-71
2022/09/13 14:40:00;;;;;;;0.70;0.50;;;38.50;31.80;;;;;;4936429;29;20538;-72
2022/09/13 14:42:38;;;;;;;0.70;0.60;;;39.10;30.80;;;;;;4936276;29;20997;-71
2022/09/13 14:45:05;;;;;;;0.70;0.50;;;40.40;30.30;;;;;;4936089;29;20446;-71
2022/09/13 14:47:40;;;;;;;0.70;0.50;;;41.10;29.50;;;;;;4936323;29;20499;-72
2022/09/13 14:50:13;;;;;;;0.70;0.50;;;41.70;28.80;;;;;;4936651;29;20199;-73
2022/09/13 14:52:47;;;;;;;0.70;0.50;;;41.00;28.60;;;;;;4936444;29;20476;-71
2022/09/13 14:55:16;;;;;;;0.70;0.50;;;40.30;28.60;;;;;;4936414;29;20941;-72
2022/09/13 14:57:50;;;;;;;0.70;0.50;;;38.80;29.80;;;;;;4937586;29;20448;-72
2022/09/13 15:00:19;;;;;;;0.70;0.50;;;37.20;30.80;;;;;;4936205;29;20475;-73
2022/09/13 15:02:49;;;;;;;0.80;0.60;;;36.10;31.50;;;;;;4936958;29;20487;-72
2022/09/13 15:05:19;;;;;;;0.70;0.50;;;35.40;32.20;;;;;;4936454;29;20456;-72
2022/09/13 15:07:46;;;;;;;0.70;0.60;;;34.70;33.10;;;;;;4936238;29;20456;-72
2022/09/13 15:10:22;;;;;;;0.70;0.50;;;34.00;34.50;;;;;;4936169;29;20462;-72
2022/09/13 15:12:53;;;;;;;0.80;0.50;;;33.10;35.90;;;;;;4940040;29;20924;-72
2022/09/13 15:15:27;;;;;;;0.70;0.50;;;32.90;37.50;;;;;;4940579;29;20530;-72
2022/09/13 15:17:55;;;;;;;0.70;0.60;;;32.10;37.10;;;;;;4941581;29;20944;-72
2022/09/13 15:20:28;;;;;;;0.80;0.53;;;31.70;38.50;;;;;;4939855;29;20483;-72
2022/09/13 15:22:55;;;;;;;0.70;0.50;;;31.50;37.80;;;;;;4939840;29;20447;-71
2022/09/13 15:25:26;;;;;;;0.70;0.60;;;31.40;37.40;;;;;;4940345;29;20459;-71
2022/09/13 15:27:56;;;;;;;0.70;0.50;;;31.00;37.70;;;;;;4940745;29;20782;-72
2022/09/13 15:30:26;;;;;;;0.70;0.50;;;30.80;38.00;;;;;;4939381;29;20875;-71
2022/09/13 15:33:23;;;;;;;0.80;0.50;;;30.50;37.90;;;;;;4939832;29;20456;-72
2022/09/13 15:35:51;;;;;;;0.70;0.50;;;30.60;38.70;;;;;;4906843;29;20539;-71
2022/09/13 15:38:24;;;;;;;2.17;0.60;;;30.40;37.10;;;;;;4939589;29;20494;-72
2022/09/13 15:41:00;;;;;;;0.70;0.50;;;29.70;38.20;;;;;;4939553;29;20492;-71
2022/09/13 15:43:28;;;;;;;0.70;0.50;;;29.70;39.20;;;;;;4939411;29;20786;-71
2022/09/13 15:45:57;;;;;;;0.70;0.50;;;29.80;39.70;;;;;;4939638;29;20455;-71
2022/09/13 15:48:27;;;;;;;0.70;0.50;;;29.80;40.10;;;;;;4939774;29;20459;-72
2022/09/13 15:51:15;;;;;;;1.00;0.60;;;29.60;39.70;;;;;;4939386;29;20661;-70
2022/09/13 15:53:43;;;;;;;0.87;0.60;;;29.40;39.70;;;;;;4935033;29;20460;-71
2022/09/13 15:56:16;;;;;;;0.70;0.60;;;29.20;40.50;;;;;;4939254;29;20455;-71
2022/09/13 15:58:44;;;;;;;0.80;0.50;;;28.90;40.50;;;;;;4939318;29;20487;-71
2022/09/13 16:01:12;;;;;;;0.70;0.50;;;28.60;41.20;;;;;;4938966;29;20527;-71
2022/09/13 16:03:40;;;;;;;1.00;0.60;;;28.40;41.60;;;;;;4939130;29;20514;-71
2022/09/13 16:06:08;;;;;;;0.80;0.50;;;28.60;43.10;;;;;;4939097;29;20447;-70
2022/09/13 16:08:35;;;;;;;0.70;0.50;;;28.70;43.00;;;;;;4938783;29;21010;-70
2022/09/13 16:11:02;;;;;;;0.70;0.60;;;28.80;42.50;;;;;;4938998;29;20542;-70
2022/09/13 16:13:29;;;;;;;0.70;0.60;;;28.70;42.40;;;;;;4938960;29;20499;-70
2022/09/13 16:15:57;;;;;;;0.70;0.70;;;28.70;42.10;;;;;;4938949;29;20515;-70